createdAt,value
2023-01-17T00:02:11.165Z,3.24
2023-01-17T00:04:55.731Z,3.31
2023-01-17T00:07:39.248Z,3.14
2023-01-17T00:10:11.925Z,3.20
2023-01-17T00:12:41.713Z,3.19
2023-01-17T00:15:12.833Z,3.48
2023-01-17T00:17:42.246Z,3.26
2023-01-17T00:20:28.593Z,2.94
2023-01-17T00:23:10.493Z,3.26
2023-01-17T00:25:53.771Z,3.30
2023-01-17T00:28:20.427Z,3.09
2023-01-17T00:30:47.111Z,2.95
2023-01-17T00:33:13.889Z,3.09
2023-01-17T00:35:43.255Z,3.12
2023-01-17T00:38:11.927Z,3.40
2023-01-17T00:40:40.889Z,3.44
2023-01-17T00:43:23.640Z,3.24
2023-01-17T00:46:05.725Z,2.84
2023-01-17T00:48:48.162Z,2.99
2023-01-17T00:51:33.032Z,3.00
2023-01-17T00:54:15.527Z,3.27
2023-01-17T00:56:58.406Z,2.93
2023-01-17T00:59:40.802Z,2.75
2023-01-17T01:02:22.814Z,2.50
2023-01-17T01:05:04.697Z,2.35
2023-01-17T01:07:49.185Z,2.38
2023-01-17T01:10:31.367Z,2.29
2023-01-17T01:13:13.274Z,2.25
2023-01-17T01:15:55.166Z,2.19
2023-01-17T01:18:37.061Z,2.10
2023-01-17T01:21:19.273Z,2.10
2023-01-17T01:24:03.743Z,2.08
2023-01-17T01:26:45.632Z,2.09
2023-01-17T01:29:27.482Z,2.24
2023-01-17T01:32:09.376Z,2.52
2023-01-17T01:34:38.767Z,2.83
2023-01-17T01:37:08.132Z,2.87
2023-01-17T01:39:40.087Z,2.80
2023-01-17T01:42:15.493Z,2.80
2023-01-17T01:44:49.791Z,2.61
2023-01-17T01:47:24.858Z,3.08
2023-01-17T01:49:54.658Z,2.81
2023-01-17T01:52:26.056Z,2.71
2023-01-17T01:55:01.766Z,2.64
2023-01-17T01:57:33.526Z,2.69
2023-01-17T02:00:07.357Z,2.42
2023-01-17T02:02:37.375Z,2.51
2023-01-17T02:05:07.594Z,2.41
2023-01-17T02:07:40.697Z,2.84
2023-01-17T02:10:13.629Z,2.71
2023-01-17T02:12:43.088Z,2.82
2023-01-17T02:15:13.490Z,2.83
2023-01-17T02:17:51.057Z,2.84
2023-01-17T02:20:50.542Z,2.69
2023-01-17T02:23:44.199Z,2.42
2023-01-17T02:26:52.644Z,2.36
2023-01-17T02:29:51.277Z,2.41
2023-01-17T02:32:29.610Z,2.46
2023-01-17T02:35:04.092Z,2.27
2023-01-17T02:37:39.542Z,2.16
2023-01-17T02:40:13.200Z,2.16
2023-01-17T02:42:45.673Z,2.11
2023-01-17T02:45:18.386Z,2.08
2023-01-17T02:47:50.390Z,2.10
2023-01-17T02:50:22.113Z,2.08
2023-01-17T02:52:58.594Z,2.11
2023-01-17T02:55:37.286Z,2.20
2023-01-17T02:58:18.385Z,2.08
2023-01-17T03:00:57.945Z,2.11
2023-01-17T03:03:33.451Z,2.06
2023-01-17T03:06:11.526Z,2.05
2023-01-17T03:08:42.115Z,2.05
2023-01-17T03:11:12.254Z,2.09
2023-01-17T03:13:42.277Z,2.24
2023-01-17T03:16:16.179Z,2.23
2023-01-17T03:18:49.270Z,2.16
2023-01-17T03:21:18.763Z,2.09
2023-01-17T03:23:48.139Z,2.09
2023-01-17T03:26:17.828Z,2.16
2023-01-17T03:28:47.360Z,2.13
2023-01-17T03:31:17.705Z,2.17
2023-01-17T03:33:49.914Z,2.21
2023-01-17T03:36:20.365Z,2.20
2023-01-17T03:38:49.808Z,2.19
2023-01-17T03:41:19.236Z,2.16
2023-01-17T03:43:48.674Z,2.19
2023-01-17T03:46:22.560Z,2.20
2023-01-17T03:48:54.791Z,2.17
2023-01-17T03:51:24.279Z,2.19
2023-01-17T03:53:53.736Z,2.20
2023-01-17T03:56:23.185Z,2.16
2023-01-17T03:58:52.953Z,2.15
2023-01-17T04:01:22.506Z,2.18
2023-01-17T04:03:54.579Z,2.18
2023-01-17T04:06:24.147Z,2.15
2023-01-17T04:08:53.588Z,2.16
2023-01-17T04:11:23.034Z,2.14
2023-01-17T04:13:52.480Z,2.11
2023-01-17T04:16:22.370Z,2.11
2023-01-17T04:18:54.434Z,2.13
2023-01-17T04:21:24.061Z,2.16
2023-01-17T04:23:53.426Z,2.19
2023-01-17T04:26:22.822Z,2.13
2023-01-17T04:28:52.257Z,2.14
2023-01-17T04:31:21.740Z,2.07
2023-01-17T04:33:53.800Z,1.88
2023-01-17T04:36:23.265Z,1.91
2023-01-17T04:38:52.664Z,1.84
2023-01-17T04:41:22.071Z,1.76
2023-01-17T04:43:51.520Z,1.72
2023-01-17T04:46:21.033Z,1.69
2023-01-17T04:48:50.624Z,1.58
2023-01-17T04:51:22.850Z,1.45
2023-01-17T04:53:52.293Z,1.33
2023-01-17T04:56:21.687Z,1.18
2023-01-17T04:58:51.130Z,1.17
2023-01-17T05:01:20.707Z,1.10
2023-01-17T05:03:50.252Z,1.07
2023-01-17T05:06:22.274Z,1.05
2023-01-17T05:08:51.751Z,1.01
2023-01-17T05:11:21.141Z,1.05
2023-01-17T05:13:50.584Z,0.94
2023-01-17T05:16:21.082Z,0.83
2023-01-17T05:18:54.151Z,0.80
2023-01-17T05:21:26.439Z,0.88
2023-01-17T05:23:55.987Z,0.95
2023-01-17T05:26:25.392Z,0.91
2023-01-17T05:28:54.861Z,1.00
2023-01-17T05:31:24.441Z,1.05
2023-01-17T05:33:53.930Z,1.02
2023-01-17T05:36:25.957Z,1.07
2023-01-17T05:38:55.438Z,1.16
2023-01-17T05:41:24.888Z,1.23
2023-01-17T05:43:54.314Z,1.16
2023-01-17T05:46:23.874Z,1.32
2023-01-17T05:48:53.563Z,1.31
2023-01-17T05:51:22.986Z,1.26
2023-01-17T05:53:54.978Z,1.34
2023-01-17T05:56:24.399Z,1.34
2023-01-17T05:58:53.818Z,1.32
2023-01-17T06:01:23.330Z,1.34
2023-01-17T06:03:53.082Z,1.28
2023-01-17T06:06:22.538Z,1.25
2023-01-17T06:08:51.954Z,1.19
2023-01-17T06:11:23.960Z,1.10
2023-01-17T06:13:53.359Z,1.12
2023-01-17T06:16:22.773Z,1.11
2023-01-17T06:18:52.191Z,1.05
2023-01-17T06:21:21.744Z,1.01
2023-01-17T06:23:51.196Z,1.02
2023-01-17T06:26:20.635Z,1.03
2023-01-17T06:28:52.847Z,1.00
2023-01-17T06:31:22.304Z,0.96
2023-01-17T06:33:51.741Z,0.93
2023-01-17T06:36:21.161Z,0.84
2023-01-17T06:38:52.926Z,0.80
2023-01-17T06:41:23.244Z,0.76
2023-01-17T06:43:55.472Z,0.72
2023-01-17T06:46:25.885Z,0.69
2023-01-17T06:48:55.376Z,0.64
2023-01-17T06:51:25.053Z,0.61
2023-01-17T06:53:54.541Z,0.63
2023-01-17T06:56:24.216Z,0.60
2023-01-17T06:58:56.270Z,0.61
2023-01-17T07:01:26.109Z,0.63
2023-01-17T07:03:58.205Z,0.60
2023-01-17T07:06:28.898Z,0.61
2023-01-17T07:08:59.047Z,0.62
2023-01-17T07:11:28.459Z,0.63
2023-01-17T07:14:00.465Z,0.61
2023-01-17T07:16:30.407Z,0.61
2023-01-17T07:19:00.113Z,0.61
2023-01-17T07:21:29.564Z,0.61
2023-01-17T07:23:59.016Z,0.62
2023-01-17T07:26:28.393Z,0.67
2023-01-17T07:29:01.330Z,0.67
2023-01-17T07:31:30.785Z,0.70
2023-01-17T07:34:00.505Z,0.72
2023-01-17T07:36:29.893Z,0.72
2023-01-17T07:38:59.352Z,0.74
2023-01-17T07:41:28.774Z,0.78
2023-01-17T07:44:01.974Z,0.78
2023-01-17T07:46:31.421Z,0.80
2023-01-17T07:49:00.901Z,0.81
2023-01-17T07:51:30.363Z,0.84
2023-01-17T07:53:59.941Z,0.86
2023-01-17T07:56:29.335Z,0.83
2023-01-17T07:59:01.405Z,0.87
2023-01-17T08:01:30.934Z,0.90
2023-01-17T08:04:00.558Z,0.89
2023-01-17T08:06:30.634Z,0.93
2023-01-17T08:09:00.115Z,0.91
2023-01-17T08:11:29.557Z,0.86
2023-01-17T08:14:01.873Z,0.74
2023-01-17T08:16:31.469Z,0.59
2023-01-17T08:19:00.874Z,0.46
2023-01-17T08:21:30.283Z,0.50
2023-01-17T08:23:59.885Z,0.47
2023-01-17T08:26:30.214Z,0.53
2023-01-17T08:29:03.213Z,0.50
2023-01-17T08:31:34.196Z,0.49
2023-01-17T08:34:03.653Z,0.51
2023-01-17T08:36:33.038Z,0.52
2023-01-17T08:39:02.463Z,0.49
2023-01-17T08:41:32.298Z,0.44
2023-01-17T08:44:04.645Z,0.44
2023-01-17T08:46:34.099Z,0.46
2023-01-17T08:49:03.543Z,0.46
2023-01-17T08:51:33.538Z,0.51
2023-01-17T08:54:02.994Z,0.50
2023-01-17T08:56:32.437Z,0.56
2023-01-17T08:59:04.477Z,0.59
2023-01-17T09:01:41.831Z,0.63
2023-01-17T09:04:11.653Z,0.59
2023-01-17T09:06:41.797Z,0.59
2023-01-17T09:09:11.771Z,0.59
2023-01-17T09:11:41.323Z,0.65
2023-01-17T09:14:15.531Z,0.69
2023-01-17T09:16:45.165Z,0.67
2023-01-17T09:19:14.691Z,0.72
2023-01-17T09:21:44.125Z,0.83
2023-01-17T09:24:13.518Z,0.79
2023-01-17T09:26:42.959Z,0.77
2023-01-17T09:29:18.166Z,0.79
2023-01-17T09:31:48.282Z,0.78
2023-01-17T09:34:18.624Z,0.87
2023-01-17T09:36:48.119Z,0.91
2023-01-17T09:39:17.620Z,0.97
2023-01-17T09:41:51.794Z,0.91
2023-01-17T09:44:28.284Z,0.86
2023-01-17T09:47:00.743Z,0.76
2023-01-17T09:49:37.935Z,0.60
2023-01-17T09:52:08.158Z,0.49
2023-01-17T09:54:40.820Z,0.48
2023-01-17T09:57:20.039Z,0.43
2023-01-17T10:00:03.654Z,0.54
2023-01-17T10:02:47.225Z,0.67
2023-01-17T10:05:31.237Z,0.56
2023-01-17T10:08:12.719Z,0.45
2023-01-17T10:10:44.913Z,0.52
2023-01-17T10:13:26.703Z,0.49
2023-01-17T10:16:07.031Z,0.37
2023-01-17T10:18:57.227Z,0.39
2023-01-17T10:21:33.439Z,0.43
2023-01-17T10:24:24.297Z,0.48
2023-01-17T10:26:56.469Z,0.55
2023-01-17T10:29:30.641Z,0.74
2023-01-17T10:32:03.798Z,0.77
2023-01-17T10:34:35.909Z,0.88
2023-01-17T10:37:13.982Z,0.93
2023-01-17T10:39:43.661Z,1.01
2023-01-17T10:42:19.063Z,1.06
2023-01-17T10:44:52.923Z,1.16
2023-01-17T10:47:28.183Z,1.11
2023-01-17T10:49:59.499Z,1.14
2023-01-17T10:52:38.402Z,1.20
2023-01-17T10:55:24.582Z,1.26
2023-01-17T10:57:55.925Z,1.21
2023-01-17T11:00:39.872Z,1.18
2023-01-17T11:03:13.118Z,1.28
2023-01-17T11:05:43.450Z,1.21
2023-01-17T11:08:14.348Z,1.32
2023-01-17T11:10:46.575Z,1.29
2023-01-17T11:13:39.880Z,1.27
2023-01-17T11:16:12.226Z,1.32
2023-01-17T11:18:44.317Z,1.25
2023-01-17T11:21:17.854Z,0.99
2023-01-17T11:23:48.661Z,0.76
2023-01-17T11:26:27.339Z,0.58
2023-01-17T11:29:17.240Z,0.27
2023-01-17T11:31:46.690Z,0.14
2023-01-17T11:34:22.003Z,0.10
2023-01-17T11:36:51.818Z,0.20
2023-01-17T11:39:31.125Z,0.40
2023-01-17T11:42:00.549Z,0.58
2023-01-17T11:44:31.763Z,0.58
2023-01-17T11:47:20.507Z,0.77
2023-01-17T11:49:52.687Z,0.94
2023-01-17T11:52:27.310Z,1.10
2023-01-17T11:54:57.357Z,1.32
2023-01-17T11:57:28.098Z,1.39
2023-01-17T12:00:00.024Z,1.35
2023-01-17T12:02:40.892Z,1.33
2023-01-17T12:05:23.543Z,1.41
2023-01-17T12:07:57.735Z,1.32
2023-01-17T12:10:31.348Z,1.33
2023-01-17T12:13:22.427Z,1.20
2023-01-17T12:16:01.783Z,1.25
2023-01-17T12:18:39.248Z,1.26
2023-01-17T12:21:19.872Z,1.30
2023-01-17T12:24:04.854Z,1.34
2023-01-17T12:26:38.585Z,1.41
2023-01-17T12:29:41.601Z,1.43
2023-01-17T12:32:32.513Z,1.42
2023-01-17T12:35:04.351Z,1.50
2023-01-17T12:37:39.758Z,1.67
2023-01-17T12:40:19.135Z,1.83
2023-01-17T12:42:53.436Z,1.93
2023-01-17T12:45:26.594Z,1.83
2023-01-17T12:48:01.572Z,2.08
2023-01-17T12:50:35.571Z,2.13
2023-01-17T12:53:18.233Z,2.21
2023-01-17T12:55:52.533Z,1.92
2023-01-17T12:58:24.409Z,1.89
2023-01-17T13:00:59.752Z,1.78
2023-01-17T13:03:34.759Z,1.73
2023-01-17T13:06:05.493Z,1.90
2023-01-17T13:08:41.858Z,1.83
2023-01-17T13:11:14.792Z,1.83
2023-01-17T13:13:44.262Z,1.98
2023-01-17T13:16:15.817Z,1.97
2023-01-17T13:18:48.080Z,1.97
2023-01-17T13:21:34.548Z,1.97
2023-01-17T13:28:25.966Z,2.09
2023-01-17T13:31:20.718Z,2.16
2023-01-17T13:34:15.011Z,2.33
2023-01-17T13:36:59.393Z,2.93
2023-01-17T13:39:44.218Z,2.79
2023-01-17T13:42:17.638Z,3.08
2023-01-17T13:44:48.050Z,3.13
2023-01-17T13:47:38.852Z,3.57
2023-01-17T13:50:16.732Z,3.35
2023-01-17T13:52:46.444Z,3.26
2023-01-17T13:55:46.776Z,3.01
2023-01-17T13:58:30.793Z,3.37
2023-01-17T14:01:00.322Z,3.60
2023-01-17T14:04:02.478Z,3.43
2023-01-17T14:06:37.434Z,3.42
2023-01-17T14:09:14.415Z,2.80
2023-01-17T14:11:57.839Z,2.56
2023-01-17T14:14:51.963Z,2.39
2023-01-17T14:17:55.922Z,2.30
2023-01-17T14:20:51.067Z,2.40
2023-01-17T14:23:59.359Z,2.19
2023-01-17T14:26:33.078Z,2.14
2023-01-17T14:29:40.218Z,2.05
2023-01-17T14:32:13.359Z,2.14
2023-01-17T14:34:43.301Z,2.21
2023-01-17T14:37:23.267Z,2.20
2023-01-17T14:39:53.474Z,2.23
2023-01-17T14:42:24.247Z,2.18
2023-01-17T14:45:02.357Z,2.12
2023-01-17T14:47:34.445Z,2.14
2023-01-17T14:50:15.108Z,2.16
2023-01-17T14:52:45.030Z,2.21
2023-01-17T14:55:18.393Z,2.16
2023-01-17T14:57:57.357Z,2.15
2023-01-17T15:00:30.496Z,2.16
2023-01-17T15:03:01.440Z,2.11
2023-01-17T15:05:31.663Z,1.96
2023-01-17T15:08:01.648Z,1.49
2023-01-17T15:10:33.070Z,1.57
2023-01-17T15:13:10.836Z,1.59
2023-01-17T15:15:45.548Z,1.61
2023-01-17T15:18:29.566Z,1.68
2023-01-17T15:21:03.160Z,1.75
2023-01-17T15:23:35.535Z,1.81
2023-01-17T15:26:06.496Z,1.80
2023-01-17T15:28:36.514Z,1.83
2023-01-17T15:31:13.660Z,1.81
2023-01-17T15:33:45.240Z,1.73
2023-01-17T15:36:30.147Z,1.67
2023-01-17T15:39:01.558Z,1.60
2023-01-17T15:41:33.607Z,1.55
2023-01-17T15:44:03.684Z,1.49
2023-01-17T15:46:45.246Z,1.46
2023-01-17T15:49:20.157Z,1.42
2023-01-17T15:51:52.801Z,1.36
2023-01-17T15:54:38.927Z,1.29
2023-01-17T15:57:25.866Z,1.27
2023-01-17T15:59:57.894Z,1.28
2023-01-17T16:02:45.828Z,1.24
2023-01-17T16:05:43.884Z,1.21
2023-01-17T16:08:32.969Z,1.18
2023-01-17T16:11:06.258Z,1.17
2023-01-17T16:13:38.551Z,1.11
2023-01-17T16:16:20.225Z,1.12
2023-01-17T16:19:00.812Z,1.12
2023-01-17T16:21:31.614Z,1.01
2023-01-17T16:24:02.911Z,1.05
2023-01-17T16:26:32.642Z,0.99
2023-01-17T16:29:02.384Z,0.99
2023-01-17T16:31:32.498Z,0.98
2023-01-17T16:34:04.545Z,0.93
2023-01-17T16:36:34.944Z,0.91
2023-01-17T16:39:04.325Z,0.89
2023-01-17T16:41:33.818Z,0.82
2023-01-17T16:44:05.461Z,0.87
2023-01-17T16:46:38.165Z,0.85
2023-01-17T16:49:10.341Z,0.85
2023-01-17T16:51:41.949Z,0.81
2023-01-17T16:54:11.360Z,0.79
2023-01-17T16:56:40.981Z,0.72
2023-01-17T16:59:10.378Z,0.63
2023-01-17T17:01:39.844Z,0.65
2023-01-17T17:04:13.902Z,0.60
2023-01-17T17:06:43.678Z,0.55
2023-01-17T17:09:13.136Z,0.55
2023-01-17T17:11:44.502Z,0.50
2023-01-17T17:14:14.169Z,0.48
2023-01-17T17:16:44.444Z,0.45
2023-01-17T17:19:16.782Z,0.45
2023-01-17T17:21:46.194Z,0.49
2023-01-17T17:24:17.236Z,0.45
2023-01-17T17:26:47.107Z,0.42
2023-01-17T17:29:16.961Z,0.42
2023-01-17T17:31:46.855Z,0.38
2023-01-17T17:34:19.230Z,0.33
2023-01-17T17:36:48.944Z,0.31
2023-01-17T17:39:18.318Z,0.28
2023-01-17T17:41:48.520Z,0.28
2023-01-17T17:44:18.190Z,0.21
2023-01-17T17:46:49.252Z,0.28
2023-01-17T17:49:22.259Z,0.20
2023-01-17T17:51:52.064Z,0.16
2023-01-17T17:54:22.264Z,0.24
2023-01-17T17:56:51.625Z,0.25
2023-01-17T17:59:21.195Z,0.21
2023-01-17T18:01:51.029Z,0.18
2023-01-17T18:04:23.053Z,0.14
2023-01-17T18:06:52.521Z,0.08
2023-01-17T18:09:22.385Z,0.09
2023-01-17T18:11:51.990Z,0.06
2023-01-17T18:14:24.085Z,0.06
2023-01-17T18:16:53.923Z,0.07
2023-01-17T18:19:27.631Z,0.03
2023-01-17T18:21:58.174Z,-0.02
2023-01-17T18:24:28.120Z,-0.05
2023-01-17T18:26:58.904Z,-0.05
2023-01-17T18:29:29.649Z,-0.07
2023-01-17T18:31:59.107Z,-0.13
2023-01-17T18:34:31.236Z,-0.10
2023-01-17T18:37:01.063Z,-0.11
2023-01-17T18:39:32.162Z,-0.14
2023-01-17T18:42:01.937Z,-0.08
2023-01-17T18:44:31.446Z,-0.15
2023-01-17T18:47:04.601Z,-0.17
2023-01-17T18:49:36.743Z,-0.22
2023-01-17T18:52:08.021Z,-0.24
2023-01-17T18:54:37.613Z,-0.24
2023-01-17T18:57:07.090Z,-0.26
2023-01-17T18:59:36.533Z,-0.28
2023-01-17T19:02:05.939Z,-0.27
2023-01-17T19:04:38.451Z,-0.29
2023-01-17T19:07:07.968Z,-0.26
2023-01-17T19:09:38.456Z,-0.34
2023-01-17T19:12:08.311Z,-0.36
2023-01-17T19:14:37.740Z,-0.36
2023-01-17T19:17:07.277Z,-0.37
2023-01-17T19:19:40.729Z,-0.36
2023-01-17T19:22:10.133Z,-0.36
2023-01-17T19:24:40.473Z,-0.36
2023-01-17T19:27:10.952Z,-0.38
2023-01-17T19:29:40.624Z,-0.41
2023-01-17T19:32:10.085Z,-0.41
2023-01-17T19:34:42.068Z,-0.46
2023-01-17T19:37:11.475Z,-0.44
2023-01-17T19:39:40.854Z,-0.47
2023-01-17T19:42:15.440Z,-0.47
2023-01-17T19:44:45.056Z,-0.51
2023-01-17T19:47:14.539Z,-0.51
2023-01-17T19:49:46.689Z,-0.54
2023-01-17T19:52:16.224Z,-0.54
2023-01-17T19:54:45.719Z,-0.58
2023-01-17T19:57:15.099Z,-0.60
2023-01-17T19:59:44.538Z,-0.62
2023-01-17T20:02:14.018Z,-0.62
2023-01-17T20:04:47.138Z,-0.64
2023-01-17T20:07:16.531Z,-0.67
2023-01-17T20:09:46.010Z,-0.72
2023-01-17T20:12:15.450Z,-0.74
2023-01-17T20:14:44.990Z,-0.77
2023-01-17T20:17:14.486Z,-0.74
2023-01-17T20:19:46.851Z,-0.78
2023-01-17T20:22:16.272Z,-0.77
2023-01-17T20:24:45.671Z,-0.78
2023-01-17T20:27:15.156Z,-0.81
2023-01-17T20:29:44.678Z,-0.82
2023-01-17T20:32:14.135Z,-0.82
2023-01-17T20:34:46.918Z,-0.78
2023-01-17T20:37:16.319Z,-0.80
2023-01-17T20:39:45.833Z,-0.84
2023-01-17T20:42:15.254Z,-0.87
2023-01-17T20:44:45.543Z,-0.86
2023-01-17T20:47:15.011Z,-0.89
2023-01-17T20:49:47.020Z,-0.89
2023-01-17T20:52:16.632Z,-0.89
2023-01-17T20:54:46.798Z,-0.93
2023-01-17T20:57:16.284Z,-0.96
2023-01-17T20:59:45.824Z,-0.92
2023-01-17T21:02:15.376Z,-0.94
2023-01-17T21:04:47.425Z,-0.97
2023-01-17T21:07:17.290Z,-0.96
2023-01-17T21:09:46.696Z,-0.99
2023-01-17T21:12:16.118Z,-0.97
2023-01-17T21:14:45.717Z,-1.01
2023-01-17T21:17:16.150Z,-0.98
2023-01-17T21:19:48.286Z,-1.01
2023-01-17T21:22:17.857Z,-1.00
2023-01-17T21:24:47.267Z,-1.00
2023-01-17T21:27:18.700Z,-1.04
2023-01-17T21:29:48.103Z,-1.06
2023-01-17T21:32:17.519Z,-1.09
2023-01-17T21:34:51.870Z,-1.05
2023-01-17T21:37:22.143Z,-1.11
2023-01-17T21:39:54.871Z,-1.04
2023-01-17T21:42:24.282Z,-1.11
2023-01-17T21:44:54.241Z,-1.18
2023-01-17T21:47:23.657Z,-1.21
2023-01-17T21:49:55.949Z,-1.20
2023-01-17T21:52:25.322Z,-1.27
2023-01-17T21:55:07.281Z,-1.27
2023-01-17T21:57:49.261Z,-1.32
2023-01-17T22:00:19.937Z,-1.38
2023-01-17T22:02:50.281Z,-1.38
2023-01-17T22:05:22.668Z,-1.39
2023-01-17T22:08:06.966Z,-1.38
2023-01-17T22:10:44.560Z,-1.39
2023-01-17T22:13:15.577Z,-1.41
2023-01-17T22:15:45.329Z,-1.40
2023-01-17T22:18:15.811Z,-1.34
2023-01-17T22:20:50.516Z,-1.37
2023-01-17T22:23:20.561Z,-1.41
2023-01-17T22:25:50.043Z,-1.44
2023-01-17T22:28:19.501Z,-1.43
2023-01-17T22:30:48.993Z,-1.44
2023-01-17T22:33:18.466Z,-1.47
2023-01-17T22:35:50.426Z,-1.43
2023-01-17T22:38:20.042Z,-1.48
2023-01-17T22:40:49.405Z,-1.44
2023-01-17T22:43:18.828Z,-1.41
2023-01-17T22:45:48.461Z,-1.51
2023-01-17T22:48:17.881Z,-1.53
2023-01-17T22:50:49.853Z,-1.42
2023-01-17T22:53:19.218Z,-1.46
2023-01-17T22:55:48.582Z,-1.42
2023-01-17T22:58:18.010Z,-1.41
2023-01-17T23:00:47.445Z,-1.38
2023-01-17T23:03:17.039Z,-1.43
2023-01-17T23:05:46.781Z,-1.38
2023-01-17T23:08:20.113Z,-1.37
2023-01-17T23:11:02.033Z,-1.38
2023-01-17T23:13:31.495Z,-1.41
2023-01-17T23:16:13.396Z,-1.38
2023-01-17T23:18:55.341Z,-1.37
2023-01-17T23:21:44.774Z,-1.38
2023-01-17T23:24:16.800Z,-1.45
2023-01-17T23:27:06.268Z,-1.46
2023-01-17T23:29:33.131Z,-1.52
2023-01-17T23:32:02.690Z,-1.50
2023-01-17T23:34:32.232Z,-1.47
2023-01-17T23:37:01.689Z,-1.45
2023-01-17T23:39:33.712Z,-1.44
2023-01-17T23:42:15.593Z,-1.51
2023-01-17T23:44:45.005Z,-1.48
2023-01-17T23:47:14.428Z,-1.47
2023-01-17T23:49:43.868Z,-1.51
2023-01-17T23:52:13.268Z,-1.56
2023-01-17T23:54:45.401Z,-1.59
2023-01-17T23:57:14.834Z,-1.60
2023-01-17T23:59:44.878Z,-1.58
